createdAt,value
2019-01-14T00:02:15.185Z,6.96
2019-01-14T00:04:45.822Z,7.03
2019-01-14T00:07:16.047Z,7.12
2019-01-14T00:09:47.066Z,7.22
2019-01-14T00:12:17.433Z,7.35
2019-01-14T00:14:48.116Z,7.41
2019-01-14T00:17:18.583Z,7.37
2019-01-14T00:19:49.340Z,7.32
2019-01-14T00:22:19.828Z,7.29
2019-01-14T00:24:50.254Z,7.24
2019-01-14T00:27:20.744Z,7.24
2019-01-14T00:29:51.338Z,7.24
2019-01-14T00:32:21.685Z,7.27
2019-01-14T00:34:52.452Z,7.25
2019-01-14T00:37:22.840Z,7.32
2019-01-14T00:39:54.131Z,7.30
2019-01-14T00:42:25.023Z,7.21
2019-01-14T00:44:55.583Z,7.04
2019-01-14T00:47:25.986Z,6.95
2019-01-14T00:49:56.325Z,6.95
2019-01-14T00:52:26.920Z,6.93
2019-01-14T00:54:57.248Z,6.98
2019-01-14T00:57:27.228Z,7.04
2019-01-14T00:59:56.569Z,7.15
2019-01-14T01:02:25.871Z,7.15
2019-01-14T01:04:55.223Z,6.75
2019-01-14T01:07:24.509Z,6.17
2019-01-14T01:09:53.884Z,5.71
2019-01-14T01:12:23.185Z,5.58
2019-01-14T01:14:52.444Z,5.42
2019-01-14T01:17:23.935Z,5.41
2019-01-14T01:19:53.245Z,5.38
2019-01-14T01:22:22.509Z,5.13
2019-01-14T01:24:51.798Z,5.05
2019-01-14T01:27:21.114Z,5.09
2019-01-14T01:29:50.423Z,5.07
2019-01-14T01:32:19.714Z,4.99
2019-01-14T01:34:49.005Z,5.13
2019-01-14T01:37:18.302Z,5.23
2019-01-14T01:39:47.577Z,5.25
2019-01-14T01:42:17.033Z,5.37
2019-01-14T01:44:46.299Z,5.51
2019-01-14T01:47:15.581Z,5.63
2019-01-14T01:49:44.858Z,5.80
2019-01-14T01:52:14.175Z,5.84
2019-01-14T01:54:43.564Z,5.87
2019-01-14T01:57:12.912Z,5.92
2019-01-14T01:59:42.218Z,6.10
2019-01-14T02:02:11.755Z,6.22
2019-01-14T02:04:41.062Z,6.25
2019-01-14T02:07:10.398Z,6.34
2019-01-14T02:09:39.698Z,6.50
2019-01-14T02:12:09.001Z,6.45
2019-01-14T02:14:38.766Z,6.54
2019-01-14T02:17:08.430Z,6.65
2019-01-14T02:19:37.724Z,6.61
2019-01-14T02:22:07.090Z,6.56
2019-01-14T02:24:36.405Z,6.60
2019-01-14T02:27:05.988Z,6.54
2019-01-14T02:29:35.299Z,6.59
2019-01-14T02:32:04.678Z,6.67
2019-01-14T02:34:34.187Z,6.74
2019-01-14T02:37:03.994Z,6.69
2019-01-14T02:39:33.476Z,6.81
2019-01-14T02:42:02.962Z,6.68
2019-01-14T02:44:32.273Z,6.66
2019-01-14T02:47:01.578Z,6.60
2019-01-14T02:49:30.857Z,6.62
2019-01-14T02:52:00.178Z,6.63
2019-01-14T02:54:29.566Z,6.73
2019-01-14T02:56:58.811Z,6.79
2019-01-14T02:59:28.093Z,6.78
2019-01-14T03:01:57.400Z,6.69
2019-01-14T03:04:26.701Z,6.64
2019-01-14T03:06:57.987Z,6.83
2019-01-14T03:09:27.000Z,6.74
2019-01-14T03:11:56.283Z,6.66
2019-01-14T03:14:25.607Z,6.74
2019-01-14T03:16:54.883Z,6.82
2019-01-14T03:19:24.188Z,6.62
2019-01-14T03:21:53.849Z,6.67
2019-01-14T03:24:23.133Z,6.65
2019-01-14T03:26:52.828Z,6.54
2019-01-14T03:29:22.103Z,6.69
2019-01-14T03:31:51.585Z,6.66
2019-01-14T03:34:20.890Z,6.70
2019-01-14T03:36:50.212Z,6.68
2019-01-14T03:39:19.490Z,6.64
2019-01-14T03:41:48.805Z,6.67
2019-01-14T03:44:18.121Z,6.75
2019-01-14T03:46:47.435Z,6.73
2019-01-14T03:49:16.713Z,6.67
2019-01-14T03:51:46.029Z,6.68
2019-01-14T03:54:15.679Z,6.83
2019-01-14T03:56:45.049Z,6.80
2019-01-14T03:59:14.329Z,6.76
2019-01-14T04:01:43.637Z,6.58
2019-01-14T04:04:12.946Z,6.51
2019-01-14T04:06:42.235Z,6.47
2019-01-14T04:09:11.784Z,6.44
2019-01-14T04:11:41.059Z,6.52
2019-01-14T04:14:10.360Z,6.48
2019-01-14T04:16:39.681Z,6.58
2019-01-14T04:19:09.049Z,6.56
2019-01-14T04:21:38.331Z,6.63
2019-01-14T04:24:07.650Z,6.58
2019-01-14T04:26:36.959Z,6.59
2019-01-14T04:29:06.275Z,6.65
2019-01-14T04:31:35.549Z,6.65
2019-01-14T04:34:05.426Z,6.66
2019-01-14T04:36:34.924Z,6.66
2019-01-14T04:39:07.488Z,6.71
2019-01-14T04:41:36.792Z,6.70
2019-01-14T04:44:06.084Z,6.74
2019-01-14T04:46:35.396Z,6.68
2019-01-14T04:49:04.749Z,6.64
2019-01-14T04:51:34.209Z,6.69
2019-01-14T04:54:03.603Z,6.72
2019-01-14T04:56:33.191Z,6.69
2019-01-14T04:59:02.773Z,6.67
2019-01-14T05:01:32.154Z,6.71
2019-01-14T05:04:03.085Z,6.54
2019-01-14T05:06:32.463Z,6.56
2019-01-14T05:09:01.898Z,6.54
2019-01-14T05:11:31.201Z,6.33
2019-01-14T05:14:00.647Z,6.53
2019-01-14T05:16:29.940Z,6.43
2019-01-14T05:18:59.330Z,6.39
2019-01-14T05:21:28.884Z,6.42
2019-01-14T05:23:58.187Z,6.40
2019-01-14T05:26:27.481Z,6.37
2019-01-14T05:28:57.157Z,6.40
2019-01-14T05:31:26.446Z,6.41
2019-01-14T05:33:56.007Z,6.33
2019-01-14T05:36:25.363Z,6.38
2019-01-14T05:38:54.875Z,6.34
2019-01-14T05:41:24.145Z,6.40
2019-01-14T05:43:53.473Z,6.32
2019-01-14T05:46:22.749Z,6.31
2019-01-14T05:48:52.369Z,6.34
2019-01-14T05:51:21.725Z,6.33
2019-01-14T05:53:51.091Z,6.40
2019-01-14T05:56:20.433Z,6.37
2019-01-14T05:58:49.752Z,6.38
2019-01-14T06:01:19.059Z,6.36
2019-01-14T06:03:48.358Z,6.36
2019-01-14T06:06:17.662Z,6.37
2019-01-14T06:08:46.971Z,6.51
2019-01-14T06:11:16.253Z,6.47
2019-01-14T06:13:45.547Z,6.57
2019-01-14T06:16:14.821Z,6.49
2019-01-14T06:18:44.130Z,6.63
2019-01-14T06:21:13.439Z,6.48
2019-01-14T06:23:42.754Z,6.61
2019-01-14T06:26:12.072Z,6.64
2019-01-14T06:28:41.334Z,6.56
2019-01-14T06:31:10.636Z,6.62
2019-01-14T06:33:39.920Z,6.61
2019-01-14T06:36:09.397Z,6.69
2019-01-14T06:38:38.746Z,6.54
2019-01-14T06:41:08.056Z,6.58
2019-01-14T06:43:37.471Z,6.62
2019-01-14T06:46:06.799Z,6.45
2019-01-14T06:48:36.243Z,6.38
2019-01-14T06:51:05.593Z,6.43
2019-01-14T06:53:34.964Z,6.32
2019-01-14T06:56:04.992Z,6.35
2019-01-14T06:58:34.280Z,6.16
2019-01-14T07:01:03.666Z,6.11
2019-01-14T07:03:32.963Z,6.10
2019-01-14T07:06:02.275Z,6.11
2019-01-14T07:08:31.559Z,6.20
2019-01-14T07:11:01.241Z,6.19
2019-01-14T07:13:30.518Z,6.21
2019-01-14T07:15:59.825Z,6.32
2019-01-14T07:18:29.125Z,6.41
2019-01-14T07:20:58.419Z,6.32
2019-01-14T07:23:27.731Z,6.38
2019-01-14T07:25:57.041Z,6.23
2019-01-14T07:28:26.319Z,6.23
2019-01-14T07:30:55.669Z,6.25
2019-01-14T07:33:24.979Z,6.23
2019-01-14T07:35:54.399Z,6.12
2019-01-14T07:38:23.782Z,6.18
2019-01-14T07:40:53.067Z,6.19
2019-01-14T07:43:22.376Z,6.22
2019-01-14T07:45:51.968Z,6.22
2019-01-14T07:48:21.548Z,6.19
2019-01-14T07:50:50.827Z,6.19
2019-01-14T07:53:20.143Z,6.19
2019-01-14T07:55:49.436Z,6.29
2019-01-14T07:58:20.009Z,6.25
2019-01-14T08:00:50.726Z,6.21
2019-01-14T08:03:21.274Z,6.08
2019-01-14T08:05:52.165Z,6.09
2019-01-14T08:08:22.952Z,6.07
2019-01-14T08:10:53.196Z,6.14
2019-01-14T08:13:23.805Z,6.06
2019-01-14T08:15:53.100Z,6.06
2019-01-14T08:18:22.432Z,6.05
2019-01-14T08:20:52.274Z,6.15
2019-01-14T08:23:21.633Z,6.05
2019-01-14T08:25:51.044Z,6.14
2019-01-14T08:28:20.347Z,6.21
2019-01-14T08:30:49.660Z,6.16
2019-01-14T08:33:19.073Z,6.27
2019-01-14T08:35:48.567Z,6.07
2019-01-14T08:38:21.336Z,6.02
2019-01-14T08:40:49.025Z,5.98
2019-01-14T08:43:18.333Z,5.92
2019-01-14T08:45:48.298Z,5.86
2019-01-14T08:48:17.606Z,5.74
2019-01-14T08:50:46.914Z,5.60
2019-01-14T08:53:16.228Z,5.61
2019-01-14T08:55:45.614Z,5.66
2019-01-14T08:58:14.962Z,5.46
2019-01-14T09:00:44.284Z,5.50
2019-01-14T09:03:13.704Z,5.31
2019-01-14T09:05:43.027Z,5.27
2019-01-14T09:08:12.331Z,5.22
2019-01-14T09:10:41.696Z,5.19
2019-01-14T09:13:10.979Z,5.06
2019-01-14T09:15:40.297Z,4.97
2019-01-14T09:18:09.646Z,4.86
2019-01-14T09:20:38.964Z,4.87
2019-01-14T09:23:08.243Z,4.81
2019-01-14T09:25:37.895Z,4.68
2019-01-14T09:28:07.169Z,4.60
2019-01-14T09:30:36.632Z,4.56
2019-01-14T09:33:05.950Z,4.40
2019-01-14T09:35:35.497Z,4.35
2019-01-14T09:38:05.173Z,4.48
2019-01-14T09:40:34.525Z,4.35
2019-01-14T09:43:04.043Z,4.33
2019-01-14T09:45:33.325Z,4.43
2019-01-14T09:48:02.717Z,4.46
2019-01-14T09:50:32.004Z,4.69
2019-01-14T09:53:01.321Z,4.79
2019-01-14T09:55:31.210Z,4.76
2019-01-14T09:58:00.597Z,4.71
2019-01-14T10:00:29.875Z,5.06
2019-01-14T10:02:59.256Z,5.03
2019-01-14T10:05:28.876Z,5.41
2019-01-14T10:07:58.194Z,5.09
2019-01-14T10:10:27.490Z,4.86
2019-01-14T10:12:56.782Z,5.05
2019-01-14T10:15:27.915Z,5.16
2019-01-14T10:17:59.132Z,5.07
2019-01-14T10:20:28.475Z,5.11
2019-01-14T10:22:57.861Z,5.21
2019-01-14T10:25:27.181Z,5.13
2019-01-14T10:27:56.482Z,5.18
2019-01-14T10:30:25.832Z,5.40
2019-01-14T10:32:55.158Z,5.54
2019-01-14T10:35:24.536Z,5.41
2019-01-14T10:37:53.914Z,5.58
2019-01-14T10:40:23.215Z,5.81
2019-01-14T10:42:52.561Z,6.00
2019-01-14T10:45:23.731Z,6.00
2019-01-14T10:47:53.451Z,5.96
2019-01-14T10:50:23.063Z,6.00
2019-01-14T10:52:52.340Z,5.65
2019-01-14T10:55:21.656Z,5.67
2019-01-14T10:57:51.104Z,5.67
2019-01-14T11:00:23.395Z,5.71
2019-01-14T11:02:53.591Z,6.10
2019-01-14T11:05:28.551Z,5.99
2019-01-14T11:07:57.845Z,6.01
2019-01-14T11:10:27.160Z,5.82
2019-01-14T11:12:57.313Z,5.86
2019-01-14T11:15:26.990Z,5.87
2019-01-14T11:17:56.273Z,5.88
2019-01-14T11:20:27.989Z,5.96
2019-01-14T11:22:58.019Z,6.62
2019-01-14T11:25:27.745Z,6.35
2019-01-14T11:27:57.759Z,6.44
2019-01-14T11:30:29.415Z,6.33
2019-01-14T11:32:58.773Z,6.11
2019-01-14T11:35:28.164Z,6.23
2019-01-14T11:37:57.513Z,6.20
2019-01-14T11:40:29.904Z,6.11
2019-01-14T11:42:59.175Z,6.27
2019-01-14T11:45:28.508Z,6.50
2019-01-14T11:47:57.871Z,6.27
2019-01-14T11:50:27.248Z,6.11
2019-01-14T11:52:56.605Z,5.92
2019-01-14T11:55:25.928Z,4.69
2019-01-14T11:57:55.227Z,4.18
2019-01-14T12:00:26.243Z,3.93
2019-01-14T12:02:55.618Z,3.94
2019-01-14T12:05:24.906Z,3.96
2019-01-14T12:07:54.300Z,3.91
2019-01-14T12:10:23.614Z,4.26
2019-01-14T12:12:52.918Z,4.43
2019-01-14T12:15:25.344Z,4.22
2019-01-14T12:17:54.649Z,4.39
2019-01-14T12:20:24.087Z,4.63
2019-01-14T12:22:53.747Z,4.66
2019-01-14T12:25:23.215Z,4.90
2019-01-14T12:27:52.605Z,4.90
2019-01-14T12:30:33.894Z,5.13
2019-01-14T12:33:03.202Z,5.18
2019-01-14T12:35:32.542Z,6.46
2019-01-14T12:38:01.868Z,8.53
2019-01-14T12:40:31.349Z,8.53
2019-01-14T12:43:00.741Z,7.30
2019-01-14T12:45:30.667Z,7.18
2019-01-14T12:47:59.960Z,6.04
2019-01-14T12:50:29.708Z,6.06
2019-01-14T12:52:59.091Z,6.06
2019-01-14T12:55:28.533Z,5.93
2019-01-14T12:57:57.850Z,6.37
2019-01-14T13:00:29.177Z,6.08
2019-01-14T13:02:58.949Z,5.92
2019-01-14T13:05:30.017Z,5.76
2019-01-14T13:07:59.374Z,6.22
2019-01-14T13:10:28.750Z,7.14
2019-01-14T13:12:58.423Z,7.50
2019-01-14T13:15:28.481Z,7.18
2019-01-14T13:17:57.822Z,7.18
2019-01-14T13:20:27.253Z,7.66
2019-01-14T13:22:56.702Z,7.83
2019-01-14T13:25:25.978Z,7.83
2019-01-14T13:27:55.301Z,8.56
2019-01-14T13:30:26.740Z,7.90
2019-01-14T13:32:56.963Z,8.18
2019-01-14T13:35:26.416Z,7.68
2019-01-14T13:37:55.894Z,7.37
2019-01-14T13:40:25.345Z,6.60
2019-01-14T13:42:54.641Z,6.68
2019-01-14T13:45:24.437Z,6.14
2019-01-14T13:47:53.703Z,6.35
2019-01-14T13:50:25.901Z,6.07
2019-01-14T13:52:55.130Z,6.05
2019-01-14T13:55:24.582Z,6.03
2019-01-14T13:57:53.919Z,5.99
2019-01-14T14:00:25.563Z,5.91
2019-01-14T14:02:55.019Z,5.84
2019-01-14T14:05:24.474Z,4.76
2019-01-14T14:07:53.827Z,3.86
2019-01-14T14:10:25.930Z,3.50
2019-01-14T14:12:55.653Z,3.27
2019-01-14T14:15:25.601Z,3.15
2019-01-14T14:17:56.540Z,3.34
2019-01-14T14:20:25.987Z,3.24
2019-01-14T14:22:55.323Z,3.39
2019-01-14T14:25:24.597Z,3.44
2019-01-14T14:27:53.986Z,3.57
2019-01-14T14:30:34.702Z,3.80
2019-01-14T14:33:04.384Z,3.92
2019-01-14T14:35:33.703Z,3.89
2019-01-14T14:38:03.369Z,3.80
2019-01-14T14:40:32.661Z,3.83
2019-01-14T14:43:01.980Z,4.07
2019-01-14T14:45:31.345Z,4.12
2019-01-14T14:48:00.879Z,4.23
2019-01-14T14:50:33.066Z,4.20
2019-01-14T14:53:02.368Z,4.18
2019-01-14T14:55:31.637Z,4.24
2019-01-14T14:58:01.016Z,4.06
2019-01-14T15:00:30.302Z,4.13
2019-01-14T15:02:59.607Z,4.14
2019-01-14T15:05:28.929Z,4.22
2019-01-14T15:07:58.205Z,4.32
2019-01-14T15:10:27.524Z,4.33
2019-01-14T15:12:56.943Z,4.32
2019-01-14T15:15:27.195Z,4.31
2019-01-14T15:17:56.652Z,4.38
2019-01-14T15:20:26.093Z,4.28
2019-01-14T15:22:55.592Z,4.40
2019-01-14T15:25:24.888Z,4.32
2019-01-14T15:27:54.204Z,4.29
2019-01-14T15:30:28.435Z,4.29
2019-01-14T15:32:58.090Z,4.31
2019-01-14T15:35:27.740Z,4.27
2019-01-14T15:37:57.097Z,4.29
2019-01-14T15:40:26.746Z,4.30
2019-01-14T15:42:56.130Z,4.50
2019-01-14T15:45:25.493Z,4.55
2019-01-14T15:47:54.814Z,4.43
2019-01-14T15:50:24.262Z,4.38
2019-01-14T15:52:53.527Z,4.43
2019-01-14T15:55:25.189Z,4.43
2019-01-14T15:57:54.599Z,4.48
2019-01-14T16:00:24.888Z,4.48
2019-01-14T16:02:54.594Z,4.44
2019-01-14T16:05:24.271Z,4.62
2019-01-14T16:07:53.630Z,4.44
2019-01-14T16:10:24.288Z,4.38
2019-01-14T16:12:53.575Z,4.42
2019-01-14T16:15:22.882Z,4.33
2019-01-14T16:17:52.238Z,4.47
2019-01-14T16:20:22.871Z,4.45
2019-01-14T16:22:52.637Z,4.48
2019-01-14T16:25:21.958Z,4.45
2019-01-14T16:27:51.250Z,4.52
2019-01-14T16:30:23.221Z,4.47
2019-01-14T16:32:52.552Z,4.39
2019-01-14T16:35:21.863Z,4.38
2019-01-14T16:37:51.280Z,4.42
2019-01-14T16:40:20.820Z,4.36
2019-01-14T16:42:50.144Z,4.33
2019-01-14T16:45:22.251Z,4.42
2019-01-14T16:47:51.647Z,4.28
2019-01-14T16:50:21.084Z,4.25
2019-01-14T16:52:50.389Z,4.14
2019-01-14T16:55:21.336Z,4.06
2019-01-14T16:57:50.654Z,3.96
2019-01-14T17:00:20.121Z,3.88
2019-01-14T17:02:49.424Z,3.91
2019-01-14T17:05:19.153Z,3.82
2019-01-14T17:07:48.545Z,3.90
2019-01-14T17:10:24.985Z,3.80
2019-01-14T17:12:48.984Z,3.82
2019-01-14T17:15:18.261Z,3.84
2019-01-14T17:17:47.643Z,4.05
2019-01-14T17:20:18.973Z,3.86
2019-01-14T17:22:48.738Z,3.87
2019-01-14T17:25:18.052Z,3.77
2019-01-14T17:27:47.346Z,3.80
2019-01-14T17:30:17.696Z,4.07
2019-01-14T17:32:47.058Z,3.97
2019-01-14T17:35:16.452Z,4.05
2019-01-14T17:37:45.859Z,4.00
2019-01-14T17:40:17.720Z,3.96
2019-01-14T17:42:47.152Z,3.90
2019-01-14T17:45:16.552Z,3.90
2019-01-14T17:47:46.066Z,3.82
2019-01-14T17:50:18.251Z,3.79
2019-01-14T17:52:47.568Z,3.93
2019-01-14T17:55:17.021Z,3.84
2019-01-14T17:57:46.333Z,3.84
2019-01-14T18:00:18.659Z,4.08
2019-01-14T18:02:48.465Z,4.23
2019-01-14T18:05:17.781Z,4.08
2019-01-14T18:07:47.059Z,3.62
2019-01-14T18:10:18.963Z,3.66
2019-01-14T18:12:48.762Z,3.59
2019-01-14T18:15:18.155Z,3.48
2019-01-14T18:17:47.545Z,3.53
2019-01-14T18:20:18.620Z,3.57
2019-01-14T18:22:48.087Z,3.65
2019-01-14T18:25:17.390Z,3.65
2019-01-14T18:27:46.722Z,3.63
2019-01-14T18:30:20.596Z,3.76
2019-01-14T18:32:50.352Z,3.83
2019-01-14T18:35:19.676Z,3.86
2019-01-14T18:37:49.105Z,3.95
2019-01-14T18:40:19.207Z,3.79
2019-01-14T18:42:48.554Z,3.97
2019-01-14T18:45:18.816Z,4.05
2019-01-14T18:47:48.463Z,4.12
2019-01-14T18:50:20.213Z,4.18
2019-01-14T18:52:49.615Z,4.15
2019-01-14T18:55:18.970Z,4.20
2019-01-14T18:57:48.352Z,4.25
2019-01-14T19:00:20.284Z,4.30
2019-01-14T19:02:50.032Z,4.07
2019-01-14T19:05:20.299Z,4.19
2019-01-14T19:07:50.128Z,4.03
2019-01-14T19:10:19.450Z,4.01
2019-01-14T19:12:48.760Z,3.98
2019-01-14T19:15:19.530Z,4.02
2019-01-14T19:17:48.991Z,4.02
2019-01-14T19:20:21.355Z,4.01
2019-01-14T19:22:50.778Z,4.08
2019-01-14T19:25:20.644Z,4.10
2019-01-14T19:27:50.026Z,3.98
2019-01-14T19:30:21.085Z,4.00
2019-01-14T19:32:50.565Z,3.96
2019-01-14T19:35:20.108Z,3.93
2019-01-14T19:37:49.500Z,3.96
2019-01-14T19:40:20.443Z,3.89
2019-01-14T19:42:50.906Z,3.93
2019-01-14T19:45:21.006Z,3.96
2019-01-14T19:47:50.293Z,3.94
2019-01-14T19:50:22.052Z,3.96
2019-01-14T19:52:51.778Z,3.97
2019-01-14T19:55:21.148Z,3.99
2019-01-14T19:57:50.656Z,4.01
2019-01-14T20:00:23.007Z,3.99
2019-01-14T20:02:52.385Z,3.98
2019-01-14T20:05:22.171Z,4.02
2019-01-14T20:07:52.707Z,4.01
2019-01-14T20:10:22.451Z,3.95
2019-01-14T20:12:51.870Z,4.02
2019-01-14T20:15:22.479Z,3.92
2019-01-14T20:17:51.845Z,3.90
2019-01-14T20:20:21.160Z,3.96
2019-01-14T20:22:50.672Z,3.86
2019-01-14T20:25:19.971Z,3.88
2019-01-14T20:27:49.292Z,3.91
2019-01-14T20:30:20.931Z,3.85
2019-01-14T20:32:50.515Z,3.78
2019-01-14T20:35:20.263Z,3.81
2019-01-14T20:37:49.712Z,3.75
2019-01-14T20:40:19.103Z,3.72
2019-01-14T20:42:48.430Z,3.86
2019-01-14T20:45:18.340Z,3.79
2019-01-14T20:47:47.681Z,3.68
2019-01-14T20:50:19.203Z,3.59
2019-01-14T20:52:48.608Z,3.57
2019-01-14T20:55:17.903Z,3.57
2019-01-14T20:57:47.240Z,3.57
2019-01-14T21:00:21.017Z,3.61
2019-01-14T21:02:50.584Z,3.61
2019-01-14T21:05:20.508Z,3.68
2019-01-14T21:07:49.823Z,3.49
2019-01-14T21:10:19.343Z,3.81
2019-01-14T21:12:48.648Z,3.82
2019-01-14T21:15:18.119Z,3.86
2019-01-14T21:17:47.405Z,4.12
2019-01-14T21:20:22.493Z,4.09
2019-01-14T21:22:52.521Z,3.87
2019-01-14T21:25:21.952Z,4.08
2019-01-14T21:27:51.294Z,4.02
2019-01-14T21:30:23.356Z,3.89
2019-01-14T21:32:52.850Z,3.86
2019-01-14T21:35:22.217Z,3.97
2019-01-14T21:37:52.271Z,3.93
2019-01-14T21:40:21.590Z,3.89
2019-01-14T21:42:50.886Z,3.89
2019-01-14T21:45:21.825Z,3.82
2019-01-14T21:47:51.437Z,4.00
2019-01-14T21:50:21.538Z,3.90
2019-01-14T21:52:50.812Z,3.91
2019-01-14T21:55:22.104Z,3.81
2019-01-14T21:57:51.466Z,3.78
2019-01-14T22:00:23.178Z,3.75
2019-01-14T22:02:52.844Z,3.89
2019-01-14T22:05:22.993Z,4.31
2019-01-14T22:07:52.385Z,3.94
2019-01-14T22:10:24.392Z,3.96
2019-01-14T22:12:53.974Z,3.77
2019-01-14T22:15:23.667Z,4.04
2019-01-14T22:17:52.991Z,4.01
2019-01-14T22:20:24.537Z,4.06
2019-01-14T22:22:54.178Z,4.08
2019-01-14T22:25:23.564Z,4.12
2019-01-14T22:27:53.247Z,3.91
2019-01-14T22:30:25.568Z,3.94
2019-01-14T22:32:54.885Z,3.91
2019-01-14T22:35:24.183Z,3.76
2019-01-14T22:37:53.558Z,4.02
2019-01-14T22:40:22.933Z,3.98
2019-01-14T22:42:52.252Z,4.05
2019-01-14T22:45:21.958Z,4.06
2019-01-14T22:47:51.282Z,3.84
2019-01-14T22:50:20.649Z,3.72
2019-01-14T22:52:49.954Z,3.88
2019-01-14T22:55:19.335Z,3.89
2019-01-14T22:57:48.640Z,3.78
2019-01-14T23:00:28.583Z,3.80
2019-01-14T23:02:57.919Z,3.87
2019-01-14T23:05:27.202Z,3.83
2019-01-14T23:07:56.532Z,3.83
2019-01-14T23:10:25.846Z,3.60
2019-01-14T23:12:55.150Z,3.59
2019-01-14T23:15:24.554Z,3.55
2019-01-14T23:17:53.872Z,3.46
2019-01-14T23:20:23.160Z,3.43
2019-01-14T23:22:52.473Z,3.46
2019-01-14T23:25:21.756Z,3.47
2019-01-14T23:27:51.084Z,3.52
2019-01-14T23:30:20.355Z,3.37
2019-01-14T23:32:49.675Z,3.37
2019-01-14T23:35:18.987Z,3.39
2019-01-14T23:37:48.303Z,3.35
2019-01-14T23:40:17.597Z,3.34
2019-01-14T23:42:47.047Z,3.37
2019-01-14T23:45:16.357Z,3.25
2019-01-14T23:47:45.839Z,3.06
2019-01-14T23:50:15.424Z,3.11
2019-01-14T23:52:44.717Z,3.25
2019-01-14T23:55:14.053Z,3.26
2019-01-14T23:57:43.513Z,3.14
